Flight Track Log - Related Links

Times and Time Zones

All times are in EDT time to prevent confusion due to time zone crossing. See the AAL970 flight status page for this flight to view local times or setup timezone preferences in your user account.

Time Position Orientation Groundspeed Altitude Reporting Facility
EDT Latitude Longitude Course Direction KTS MPH feet Rate Location/Type
Thu 11:49:41 AM 32.8833 -97.0500 335° Northwest 173 199 1,300  Level Dallas TRACON
Thu 11:50:12 AM 32.8667 -97.0500 180° South 169 194 2,600 2,044 Climbing Dallas TRACON
Thu 11:51:12 AM 32.8000 -97.0667 192° South 242 278 4,400 2,390 Climbing Dallas TRACON
Thu 11:52:00 AM 33.1819 -96.9424 16° North  Level Estimated
Thu 11:52:15 AM 32.7644 -97.1342 238° Southwest 253 291 7,500  Level Fort Center
Thu 11:53:00 AM 33.2734 -96.9884 328° Northwest  Level FlightAware
Thu 11:53:17 AM 32.8214 -97.1908 320° Northwest 295 339 9,700  Level Fort Center
Thu 11:54:00 AM 33.3586 -97.0477 335° Northwest  Level FlightAware
Thu 11:54:19 AM 32.9136 -97.1808 North 335 386 11,500  Level Fort Center
Thu 11:55:00 AM 33.4476 -97.0986 335° Northwest  Level FlightAware
Thu 11:55:21 AM 33.0294 -97.1633 North 392 451 13,800  Level Fort Center
Thu 11:56:23 AM 33.1414 -97.1461 North 405 466 16,700 2,468 Climbing Fort Center
Thu 11:57:25 AM 33.2583 -97.1003 18° North 413 475 18,900 1,935 Climbing Fort Center
Thu 11:58:27 AM 33.3789 -97.0597 16° North 430 495 20,700 1,742 Climbing Fort Center
Thu 11:59:29 AM 33.4992 -97.0211 15° North 448 516 22,500 1,548 Climbing Fort Center
Thu 12:00:31 PM 33.6078 -96.9847 16° North 453 521 23,900 1,584 Climbing Fort Center
Thu 12:01:34 PM 33.7569 -96.9367 15° North 462 532 25,800 1,536 Climbing Fort Center
Thu 12:02:36 PM 33.8853 -96.8947 15° North 471 542 27,100 1,694 Climbing Fort Center
Thu 12:03:38 PM 34.0136 -96.8519 15° North 478 550 29,300 1,839 Climbing Fort Center
Thu 12:04:40 PM 34.1386 -96.8106 15° North 473 544 30,900 823 Climbing Fort Center
Thu 12:05:42 PM 34.2611 -96.7689 16° North 462 532 31,000 339 Climbing Fort Center
Thu 12:06:44 PM 34.3825 -96.7292 15° North 459 528 31,600 871 Climbing Fort Center
Thu 12:07:46 PM 34.5353 -96.6789 15° North 470 541 32,800 677 Climbing Fort Center
Thu 12:08:48 PM 34.6386 -96.6406 17° North 451 519 33,000 97 Climbing Fort Center
Thu 12:09:50 PM 34.7869 -96.5906 15° North 457 526 33,000  Level Fort Center
Thu 12:10:53 PM 34.9117 -96.5486 15° North 463 533 33,000  Level Fort Center
Thu 12:11:55 PM 35.0372 -96.5058 16° North 468 539 33,000  Level Fort Center
Thu 12:12:57 PM 35.1617 -96.4633 16° North 468 539 33,000  Level Fort Center
Thu 12:13:59 PM 35.2883 -96.4211 15° North 469 540 33,000  Level Fort Center
Thu 12:15:01 PM 35.4381 -96.3700 16° North 469 540 33,000  Level Fort Center
Thu 12:16:03 PM 35.5617 -96.3267 16° North 467 537 33,000  Level Fort Center
Thu 12:17:05 PM 35.6886 -96.2839 15° North 468 539 33,000  Level Fort Center
Thu 12:17:38 PM 35.7617 -96.2561 17° North 469 540 33,000  Level Kansas Center
Thu 12:18:40 PM 35.8931 -96.2117 15° North 469 540 33,000  Level Kansas Center
Thu 12:19:42 PM 36.0214 -96.1681 15° North 471 542 33,000  Level Kansas Center
Thu 12:20:44 PM 36.1497 -96.1228 16° North 472 543 33,000  Level Kansas Center
Thu 12:21:46 PM 36.2775 -96.0783 16° North 472 543 33,000  Level Kansas Center
Thu 12:22:48 PM 36.4075 -96.0392 14° North 473 544 33,000  Level Kansas Center
Thu 12:23:50 PM 36.5372 -96.0092 11° North 472 543 33,000  Level Kansas Center
Thu 12:24:52 PM 36.6928 -95.9686 12° North 472 543 33,000  Level Kansas Center
Thu 12:25:54 PM 36.8231 -95.9367 11° North 472 543 33,000  Level Kansas Center
Thu 12:26:56 PM 36.9542 -95.9044 11° North 472 543 33,000  Level Kansas Center
Thu 12:27:58 PM 37.0839 -95.8703 12° North 473 544 33,000  Level Kansas Center
Thu 12:29:00 PM 37.2147 -95.8386 11° North 473 544 33,000  Level Kansas Center
Thu 12:30:02 PM 37.3450 -95.8050 12° North 474 545 33,000  Level Kansas Center
Thu 12:31:05 PM 37.4761 -95.7703 12° North 474 545 33,000 -240 Level Kansas Center
Thu 12:32:07 PM 37.6058 -95.7372 11° North 474 545 32,500 -1,065 Descending Kansas Center
Thu 12:33:09 PM 37.7611 -95.6958 12° North 474 545 30,800 -1,548 Descending Kansas Center
Thu 12:34:11 PM 37.8903 -95.6619 12° North 474 545 29,300 -1,645 Descending Kansas Center
Thu 12:35:13 PM 38.0281 -95.6264 11° North 472 543 27,400 -1,790 Descending Kansas Center
Thu 12:36:15 PM 38.1617 -95.5903 12° North 472 543 25,600 -2,323 Descending Kansas Center
Thu 12:37:17 PM 38.2831 -95.5589 11° North 468 539 22,600 -3,048 Descending Kansas Center
Thu 12:38:19 PM 38.4136 -95.5231 12° North 460 529 19,300 -2,903 Descending Kansas Center
Thu 12:39:21 PM 38.5378 -95.4894 12° North 442 509 16,600 -2,226 Descending Kansas Center
Thu 12:40:23 PM 38.6497 -95.4606 11° North 402 463 14,700 -1,935 Descending Kansas Center
Thu 12:41:25 PM 38.7311 -95.3744 40° Northeast 368 423 12,600 -1,887 Descending Kansas Center
Thu 12:42:27 PM 38.7967 -95.2750 50° Northeast 366 421 10,800 -1,200 Descending Kansas Center
Thu 12:43:30 PM 38.8569 -95.1789 51° Northeast 349 402 10,100 -576 Descending Kansas Center
Thu 12:44:32 PM 38.9208 -95.0817 50° Northeast 327 376 9,600 -871 Descending Kansas Center
Thu 12:45:34 PM 38.9739 -95.0003 50° Northeast 300 345 8,300 -1,500 Descending Kansas Center
Thu 12:46:36 PM 39.0278 -94.9153 51° Northeast 288 331 6,500 -1,452 Descending Kansas Center
Thu 12:47:38 PM 39.0769 -94.8392 50° Northeast 277 319 5,300 -1,258 Descending Kansas Center
Thu 12:48:40 PM 39.1283 -94.7611 50° Northeast 271 312 3,900 -1,065 Descending Kansas Center
Thu 12:49:42 PM 39.1869 -94.7372 18° North 223 257 3,100 -919 Descending Kansas Center
Thu 12:50:44 PM 39.2364 -94.7225 13° North 167 192 2,000 -871 Descending Kansas Center
Thu 12:51:46 PM 39.2722 -94.7122 13° North 138 159 1,300 -484 Descending Kansas Center
Thu 12:52:48 PM 39.3036 -94.7025 13° North 136 157 1,000 -290 Descending Kansas Center

Login

Don't have an account? Register now (free) for customized features, flight alerts, and more!